createdAt,value
2018-12-30T00:01:20.401Z,4.53
2018-12-30T00:03:51.934Z,6.23
2018-12-30T00:06:23.700Z,7.30
2018-12-30T00:08:55.659Z,5.77
2018-12-30T00:11:27.353Z,4.40
2018-12-30T00:13:58.884Z,4.27
2018-12-30T00:16:30.477Z,4.93
2018-12-30T00:19:01.920Z,4.37
2018-12-30T00:21:33.326Z,7.40
2018-12-30T00:24:04.776Z,4.63
2018-12-30T00:26:36.198Z,4.67
2018-12-30T00:29:07.713Z,3.97
2018-12-30T00:31:39.017Z,6.03
2018-12-30T00:34:10.591Z,5.20
2018-12-30T00:36:43.592Z,4.37
2018-12-30T00:39:15.529Z,5.10
2018-12-30T00:41:46.911Z,5.03
2018-12-30T00:44:18.519Z,4.60
2018-12-30T00:46:49.835Z,5.00
2018-12-30T00:49:21.313Z,3.97
2018-12-30T00:51:52.747Z,4.33
2018-12-30T00:54:24.198Z,4.37
2018-12-30T00:56:55.456Z,5.27
2018-12-30T00:59:26.791Z,3.90
2018-12-30T01:01:59.673Z,4.10
2018-12-30T01:04:31.227Z,6.90
2018-12-30T01:07:02.675Z,4.80
2018-12-30T01:09:34.195Z,4.50
2018-12-30T01:12:05.838Z,5.10
2018-12-30T01:14:37.288Z,7.00
2018-12-30T01:17:08.652Z,5.50
2018-12-30T01:19:40.252Z,5.37
2018-12-30T01:22:11.742Z,5.30
2018-12-30T01:24:43.250Z,4.63
2018-12-30T01:27:14.537Z,5.50
2018-12-30T01:29:45.917Z,4.80
2018-12-30T01:32:17.330Z,4.80
2018-12-30T01:34:48.717Z,4.33
2018-12-30T01:37:20.322Z,6.03
2018-12-30T01:39:51.944Z,5.00
2018-12-30T01:42:23.370Z,3.97
2018-12-30T01:44:54.775Z,5.50
2018-12-30T01:47:26.194Z,4.87
2018-12-30T01:49:57.589Z,3.80
2018-12-30T01:52:28.961Z,4.73
2018-12-30T01:55:00.424Z,3.93
2018-12-30T01:57:31.904Z,5.90
2018-12-30T02:00:03.394Z,5.27
2018-12-30T02:02:36.547Z,5.63
2018-12-30T02:05:08.024Z,4.53
2018-12-30T02:07:39.471Z,7.87
2018-12-30T02:10:11.224Z,5.20
2018-12-30T02:12:42.719Z,6.67
2018-12-30T02:15:14.118Z,6.93
2018-12-30T02:17:45.622Z,6.67
2018-12-30T02:20:17.143Z,5.87
2018-12-30T02:22:48.504Z,4.80
2018-12-30T02:25:20.075Z,9.83
2018-12-30T02:27:51.525Z,4.37
2018-12-30T02:30:23.128Z,5.93
2018-12-30T02:32:54.644Z,6.10
2018-12-30T02:35:26.007Z,4.83
2018-12-30T02:37:57.425Z,4.90
2018-12-30T02:40:28.747Z,4.90
2018-12-30T02:43:00.135Z,6.43
2018-12-30T02:45:31.482Z,4.57
2018-12-30T02:48:02.931Z,4.50
2018-12-30T02:50:34.257Z,6.37
2018-12-30T02:53:05.642Z,4.67
2018-12-30T02:55:36.964Z,4.90
2018-12-30T02:58:08.447Z,6.20
2018-12-30T03:00:40.045Z,5.57
2018-12-30T03:03:11.645Z,6.13
2018-12-30T03:05:43.152Z,5.27
2018-12-30T03:08:14.701Z,6.90
2018-12-30T03:10:46.167Z,6.97
2018-12-30T03:13:17.621Z,7.37
2018-12-30T03:15:48.953Z,5.03
2018-12-30T03:18:20.344Z,6.73
2018-12-30T03:20:51.887Z,6.17
2018-12-30T03:23:23.496Z,5.20
2018-12-30T03:25:55.040Z,6.37
2018-12-30T03:28:26.323Z,5.07
2018-12-30T03:30:57.760Z,6.93
2018-12-30T03:33:28.952Z,6.13
2018-12-30T03:36:00.365Z,5.87
2018-12-30T03:38:31.866Z,5.80
2018-12-30T03:41:03.304Z,7.87
2018-12-30T03:43:34.720Z,6.77
2018-12-30T03:46:06.088Z,5.43
2018-12-30T03:48:37.472Z,5.37
2018-12-30T03:51:08.895Z,5.27
2018-12-30T03:53:40.406Z,5.93
2018-12-30T03:56:11.752Z,5.63
2018-12-30T03:58:43.132Z,4.67
2018-12-30T04:01:14.573Z,5.10
2018-12-30T04:03:47.386Z,4.83
2018-12-30T04:06:18.964Z,4.83
2018-12-30T04:08:50.347Z,3.93
2018-12-30T04:11:21.982Z,8.50
2018-12-30T04:13:56.230Z,3.77
2018-12-30T04:16:27.589Z,4.77
2018-12-30T04:18:59.034Z,4.27
2018-12-30T04:21:30.501Z,5.80
2018-12-30T04:24:02.119Z,5.07
2018-12-30T04:26:33.519Z,4.27
2018-12-30T04:29:04.896Z,4.67
2018-12-30T04:31:36.277Z,4.13
2018-12-30T04:34:07.693Z,5.07
2018-12-30T04:36:39.095Z,5.30
2018-12-30T04:39:10.738Z,7.20
2018-12-30T04:41:42.129Z,5.63
2018-12-30T04:44:14.916Z,6.00
2018-12-30T04:46:46.485Z,5.13
2018-12-30T04:49:17.957Z,5.50
2018-12-30T04:51:49.226Z,5.23
2018-12-30T04:54:22.352Z,5.40
2018-12-30T04:56:53.757Z,4.77
2018-12-30T04:59:25.297Z,5.60
2018-12-30T05:01:59.759Z,6.13
2018-12-30T05:04:31.221Z,4.33
2018-12-30T05:07:02.634Z,6.07
2018-12-30T05:09:33.876Z,6.03
2018-12-30T05:12:05.281Z,6.70
2018-12-30T05:14:36.719Z,8.07
2018-12-30T05:17:08.188Z,5.57
2018-12-30T05:19:39.662Z,6.27
2018-12-30T05:22:11.013Z,7.10
2018-12-30T05:24:42.560Z,6.63
2018-12-30T05:27:14.054Z,7.03
2018-12-30T05:29:45.608Z,7.73
2018-12-30T05:32:17.171Z,5.87
2018-12-30T05:34:48.671Z,5.83
2018-12-30T05:37:19.974Z,6.47
2018-12-30T05:39:51.457Z,6.30
2018-12-30T05:42:22.777Z,6.33
2018-12-30T05:44:54.253Z,6.73
2018-12-30T05:47:25.594Z,6.10
2018-12-30T05:49:57.155Z,7.30
2018-12-30T05:52:28.776Z,5.53
2018-12-30T05:55:00.264Z,9.93
2018-12-30T05:57:31.816Z,7.77
2018-12-30T06:00:03.531Z,7.90
2018-12-30T06:02:36.276Z,7.17
2018-12-30T06:05:07.668Z,8.53
2018-12-30T06:07:39.099Z,8.13
2018-12-30T06:10:10.461Z,6.53
2018-12-30T06:12:42.007Z,6.10
2018-12-30T06:15:13.408Z,7.90
2018-12-30T06:17:44.944Z,7.73
2018-12-30T06:20:16.282Z,7.63
2018-12-30T06:22:49.614Z,7.23
2018-12-30T06:25:21.385Z,8.40
2018-12-30T06:27:53.019Z,9.80
2018-12-30T06:30:25.187Z,8.47
2018-12-30T06:32:56.699Z,8.70
2018-12-30T06:35:28.247Z,10.27
2018-12-30T06:37:59.688Z,8.30
2018-12-30T06:40:31.133Z,11.30
2018-12-30T06:43:02.786Z,151.27
2018-12-30T06:45:34.169Z,15.47
2018-12-30T06:48:08.130Z,50.33
2018-12-30T06:50:39.666Z,34.07
2018-12-30T06:53:11.267Z,48.33
2018-12-30T06:55:42.660Z,23.43
2018-12-30T06:58:14.083Z,28.37
2018-12-30T07:00:45.645Z,23.47
2018-12-30T07:03:17.103Z,27.63
2018-12-30T07:05:48.732Z,25.13
2018-12-30T07:08:20.218Z,28.10
2018-12-30T07:10:51.453Z,15.67
2018-12-30T07:13:22.860Z,21.80
2018-12-30T07:15:54.358Z,16.97
2018-12-30T07:18:25.697Z,13.17
2018-12-30T07:20:57.193Z,14.83
2018-12-30T07:23:28.550Z,13.60
2018-12-30T07:26:00.052Z,10.77
2018-12-30T07:28:31.633Z,10.47
2018-12-30T07:31:03.206Z,16.87
2018-12-30T07:33:34.841Z,37.60
2018-12-30T07:36:06.287Z,12.67
2018-12-30T07:38:37.816Z,14.70
2018-12-30T07:41:09.236Z,13.47
2018-12-30T07:43:40.653Z,8.93
2018-12-30T07:46:12.083Z,11.37
2018-12-30T07:48:43.613Z,9.60
2018-12-30T07:51:15.060Z,8.73
2018-12-30T07:53:46.583Z,10.53
2018-12-30T07:56:18.029Z,11.77
2018-12-30T07:58:49.503Z,16.40
2018-12-30T08:01:20.849Z,14.73
2018-12-30T08:03:52.181Z,14.53
2018-12-30T08:06:23.745Z,10.57
2018-12-30T08:08:55.129Z,11.60
2018-12-30T08:11:26.721Z,11.57
2018-12-30T08:13:58.156Z,10.60
2018-12-30T08:16:29.664Z,8.33
2018-12-30T08:19:01.302Z,9.40
2018-12-30T08:21:32.785Z,10.70
2018-12-30T08:24:04.085Z,9.60
2018-12-30T08:26:35.477Z,9.27
2018-12-30T08:29:07.025Z,11.40
2018-12-30T08:31:38.481Z,11.00
2018-12-30T08:34:09.896Z,15.03
2018-12-30T08:36:41.516Z,41.67
2018-12-30T08:39:13.005Z,35.83
2018-12-30T08:41:44.511Z,89.60
2018-12-30T08:44:15.955Z,43.87
2018-12-30T08:46:47.552Z,54.70
2018-12-30T08:49:18.927Z,156.60
2018-12-30T08:51:50.438Z,84.60
2018-12-30T08:54:21.781Z,10.70
2018-12-30T08:56:53.227Z,14.63
2018-12-30T08:59:24.481Z,13.37
2018-12-30T09:01:56.032Z,28.20
2018-12-30T09:04:28.619Z,17.83
2018-12-30T09:07:00.212Z,11.23
2018-12-30T09:09:31.781Z,15.87
2018-12-30T09:12:04.968Z,24.37
2018-12-30T09:14:36.575Z,12.47
2018-12-30T09:17:08.165Z,15.13
2018-12-30T09:19:39.722Z,15.00
2018-12-30T09:22:11.696Z,21.43
2018-12-30T09:24:44.889Z,54.47
2018-12-30T09:27:19.632Z,18.23
2018-12-30T09:29:55.445Z,7.90
2018-12-30T09:32:31.191Z,37.23
2018-12-30T09:35:05.741Z,77.77
2018-12-30T09:37:48.101Z,46.60
2018-12-30T09:40:25.384Z,23.37
2018-12-30T09:42:57.264Z,24.57
2018-12-30T09:45:42.291Z,35.40
2018-12-30T09:48:16.960Z,34.27
2018-12-30T09:50:53.586Z,35.93
2018-12-30T09:53:28.954Z,25.87
2018-12-30T09:56:00.586Z,48.53
2018-12-30T09:58:32.658Z,22.07
2018-12-30T10:01:09.013Z,28.53
2018-12-30T10:03:45.150Z,23.07
2018-12-30T10:06:20.330Z,27.07
2018-12-30T10:09:05.905Z,16.33
2018-12-30T10:11:40.805Z,42.03
2018-12-30T10:14:14.728Z,25.13
2018-12-30T10:16:53.263Z,50.97
2018-12-30T10:19:28.542Z,41.90
2018-12-30T10:22:00.501Z,51.80
2018-12-30T10:24:33.809Z,45.30
2018-12-30T10:27:15.829Z,132.23
2018-12-30T10:29:54.706Z,17.87
2018-12-30T10:32:29.501Z,9.47
2018-12-30T10:35:01.134Z,8.00
2018-12-30T10:37:32.417Z,6.90
2018-12-30T10:40:03.811Z,14.63
2018-12-30T10:42:35.392Z,8.13
2018-12-30T10:45:07.222Z,11.57
2018-12-30T10:47:38.645Z,18.87
2018-12-30T10:50:10.165Z,12.13
2018-12-30T10:52:41.628Z,7.00
2018-12-30T10:55:14.036Z,6.83
2018-12-30T10:57:45.397Z,6.53
2018-12-30T11:00:16.969Z,6.20
2018-12-30T11:02:48.339Z,8.10
2018-12-30T11:05:19.774Z,7.53
2018-12-30T11:07:51.250Z,8.57
2018-12-30T11:10:22.970Z,6.43
2018-12-30T11:12:54.521Z,8.40
2018-12-30T11:15:26.039Z,6.70
2018-12-30T11:18:00.449Z,9.53
2018-12-30T11:20:33.476Z,7.93
2018-12-30T11:23:04.896Z,7.03
2018-12-30T11:25:36.428Z,9.60
2018-12-30T11:28:07.718Z,7.93
2018-12-30T11:30:39.275Z,10.00
2018-12-30T11:33:34.368Z,10.18
2018-12-30T11:36:05.775Z,175.07
2018-12-30T11:38:37.113Z,29.47
2018-12-30T11:41:08.524Z,10.57
2018-12-30T11:43:41.124Z,9.10
2018-12-30T11:46:12.626Z,7.97
2018-12-30T11:48:44.165Z,14.33
2018-12-30T11:51:15.725Z,9.07
2018-12-30T11:53:47.305Z,38.17
2018-12-30T11:56:21.614Z,44.40
2018-12-30T11:58:53.167Z,61.63
2018-12-30T12:01:24.637Z,32.67
2018-12-30T12:03:56.086Z,114.87
2018-12-30T12:06:27.507Z,16.47
2018-12-30T12:08:58.985Z,8.10
2018-12-30T12:11:30.330Z,41.27
2018-12-30T12:14:01.766Z,40.20
2018-12-30T12:16:33.272Z,70.87
2018-12-30T12:19:04.652Z,15.50
2018-12-30T12:21:36.091Z,10.97
2018-12-30T12:24:07.783Z,17.50
2018-12-30T12:26:39.162Z,66.53
2018-12-30T12:29:10.555Z,33.50
2018-12-30T12:31:41.966Z,15.27
2018-12-30T12:34:13.385Z,17.80
2018-12-30T12:36:44.907Z,19.53
2018-12-30T12:39:36.687Z,14.67
2018-12-30T12:42:18.841Z,15.17
2018-12-30T12:44:50.451Z,11.33
2018-12-30T12:47:21.880Z,15.10
2018-12-30T12:49:53.461Z,11.67
2018-12-30T12:52:25.187Z,9.23
2018-12-30T12:54:56.704Z,7.93
2018-12-30T12:57:28.120Z,14.57
2018-12-30T12:59:59.501Z,11.80
2018-12-30T13:02:31.010Z,13.23
2018-12-30T13:05:02.451Z,12.80
2018-12-30T13:07:33.900Z,11.83
2018-12-30T13:10:05.996Z,13.53
2018-12-30T13:12:37.575Z,13.97
2018-12-30T13:15:09.524Z,13.30
2018-12-30T13:17:41.012Z,11.93
2018-12-30T13:20:12.383Z,12.43
2018-12-30T13:22:43.798Z,15.53
2018-12-30T13:25:15.226Z,21.23
2018-12-30T13:27:46.555Z,17.67
2018-12-30T13:30:29.085Z,15.17
2018-12-30T13:33:05.360Z,14.37
2018-12-30T13:35:45.005Z,19.17
2018-12-30T13:38:17.829Z,15.93
2018-12-30T13:40:50.289Z,22.97
2018-12-30T13:43:21.837Z,37.43
2018-12-30T13:45:53.632Z,40.00
2018-12-30T13:48:25.235Z,51.63
2018-12-30T13:50:56.858Z,39.73
2018-12-30T13:53:38.473Z,32.93
2018-12-30T13:56:09.991Z,24.73
2018-12-30T13:58:41.676Z,33.77
2018-12-30T14:01:13.194Z,47.83
2018-12-30T14:03:44.610Z,44.87
2018-12-30T14:06:15.941Z,31.83
2018-12-30T14:08:47.247Z,19.03
2018-12-30T14:11:21.279Z,18.13
2018-12-30T14:13:52.818Z,22.53
2018-12-30T14:16:24.277Z,17.57
2018-12-30T14:18:55.782Z,14.57
2018-12-30T14:21:27.351Z,13.43
2018-12-30T14:24:03.058Z,33.17
2018-12-30T14:26:34.449Z,35.70
2018-12-30T14:29:05.868Z,39.20
2018-12-30T14:31:37.365Z,41.33
2018-12-30T14:34:08.800Z,54.53
2018-12-30T14:36:40.238Z,57.57
2018-12-30T14:39:11.767Z,59.77
2018-12-30T14:41:43.276Z,54.83
2018-12-30T14:44:14.925Z,60.90
2018-12-30T14:46:46.475Z,82.47
2018-12-30T14:49:19.067Z,102.20
2018-12-30T14:51:50.533Z,78.37
2018-12-30T14:54:22.176Z,79.00
2018-12-30T14:56:53.770Z,62.17
2018-12-30T14:59:25.316Z,56.90
2018-12-30T15:01:56.668Z,58.10
2018-12-30T15:04:38.107Z,85.47
2018-12-30T15:07:24.748Z,79.57
2018-12-30T15:10:04.773Z,73.40
2018-12-30T15:12:46.922Z,67.27
2018-12-30T15:15:18.378Z,59.43
2018-12-30T15:17:49.995Z,77.30
2018-12-30T15:20:21.722Z,62.80
2018-12-30T15:22:53.170Z,48.93
2018-12-30T15:25:24.693Z,57.90
2018-12-30T15:27:56.191Z,115.87
2018-12-30T15:30:33.945Z,106.37
2018-12-30T15:33:05.372Z,104.70
2018-12-30T15:35:48.984Z,99.37
2018-12-30T15:38:29.158Z,96.20
2018-12-30T15:41:07.432Z,255.37
2018-12-30T15:43:51.183Z,268.40
2018-12-30T15:46:26.543Z,162.57
2018-12-30T15:49:09.543Z,120.93
2018-12-30T15:52:00.645Z,124.43
2018-12-30T15:54:32.583Z,90.73
2018-12-30T15:57:06.333Z,89.60
2018-12-30T15:59:37.894Z,72.73
2018-12-30T16:02:16.042Z,77.83
2018-12-30T16:04:47.946Z,76.23
2018-12-30T16:07:23.416Z,65.03
2018-12-30T16:09:57.436Z,69.93
2018-12-30T16:12:33.900Z,66.70
2018-12-30T16:15:06.155Z,116.43
2018-12-30T16:17:38.540Z,301.87
2018-12-30T16:20:16.653Z,122.13
2018-12-30T16:22:53.144Z,70.00
2018-12-30T16:25:27.377Z,109.10
2018-12-30T16:27:59.212Z,113.23
2018-12-30T16:30:31.161Z,223.47
2018-12-30T16:33:05.447Z,175.57
2018-12-30T16:35:40.598Z,149.20
2018-12-30T16:38:14.527Z,140.30
2018-12-30T16:40:50.656Z,170.83
2018-12-30T16:43:24.126Z,140.40
2018-12-30T16:45:57.330Z,144.60
2018-12-30T16:48:28.740Z,134.00
2018-12-30T16:51:00.237Z,67.80
2018-12-30T16:53:31.672Z,64.33
2018-12-30T16:56:03.631Z,61.87
2018-12-30T16:58:34.995Z,55.57
2018-12-30T17:01:06.539Z,60.17
2018-12-30T17:03:37.932Z,55.17
2018-12-30T17:06:09.365Z,152.80
2018-12-30T17:08:40.692Z,314.23
2018-12-30T17:11:13.324Z,235.83
2018-12-30T17:13:44.806Z,117.87
2018-12-30T17:16:16.287Z,57.10
2018-12-30T17:18:47.715Z,53.60
2018-12-30T17:21:19.230Z,49.80
2018-12-30T17:23:50.665Z,42.63
2018-12-30T17:26:22.291Z,55.10
2018-12-30T17:28:53.667Z,57.63
2018-12-30T17:31:25.213Z,50.27
2018-12-30T17:33:56.589Z,55.77
2018-12-30T17:36:28.165Z,64.67
2018-12-30T17:38:59.632Z,50.83
2018-12-30T17:41:31.001Z,47.83
2018-12-30T17:44:02.549Z,51.67
2018-12-30T17:46:33.938Z,49.80
2018-12-30T17:49:05.421Z,61.73
2018-12-30T17:51:36.813Z,62.07
2018-12-30T17:54:14.979Z,46.47
2018-12-30T17:56:41.493Z,54.83
2018-12-30T17:59:13.004Z,49.83
2018-12-30T18:01:44.649Z,53.53
2018-12-30T18:04:17.022Z,52.67
2018-12-30T18:06:48.553Z,48.93
2018-12-30T18:09:24.119Z,48.83
2018-12-30T18:11:55.539Z,67.80
2018-12-30T18:14:26.904Z,68.33
2018-12-30T18:16:58.370Z,57.77
2018-12-30T18:19:29.969Z,50.40
2018-12-30T18:22:01.353Z,53.03
2018-12-30T18:24:33.005Z,52.47
2018-12-30T18:27:08.475Z,51.73
2018-12-30T18:29:50.798Z,53.47
2018-12-30T18:32:32.001Z,77.43
2018-12-30T18:35:25.418Z,65.53
2018-12-30T18:37:54.441Z,101.37
2018-12-30T18:40:48.345Z,97.10
2018-12-30T18:43:31.360Z,99.17
2018-12-30T18:46:15.544Z,87.03
2018-12-30T18:48:55.848Z,83.50
2018-12-30T18:51:43.119Z,58.27
2018-12-30T18:54:21.615Z,69.83
2018-12-30T18:57:03.581Z,59.57
2018-12-30T18:59:39.337Z,58.50
2018-12-30T19:02:18.139Z,57.30
2018-12-30T19:04:58.127Z,74.23
2018-12-30T19:07:39.009Z,68.67
2018-12-30T19:10:37.430Z,104.97
2018-12-30T19:13:11.912Z,313.30
2018-12-30T19:15:58.754Z,288.07
2018-12-30T19:18:36.650Z,201.47
2018-12-30T19:21:08.652Z,191.03
2018-12-30T19:23:46.561Z,263.73
2018-12-30T19:26:21.807Z,172.20
2018-12-30T19:28:58.548Z,97.67
2018-12-30T19:31:31.811Z,89.63
2018-12-30T19:34:05.365Z,97.17
2018-12-30T19:36:43.613Z,86.37
2018-12-30T19:39:22.697Z,132.70
2018-12-30T19:41:58.430Z,126.17
2018-12-30T19:44:33.382Z,149.07
2018-12-30T19:47:04.745Z,119.90
2018-12-30T19:49:36.075Z,87.37
2018-12-30T19:52:07.234Z,62.43
2018-12-30T19:54:38.748Z,54.47
2018-12-30T19:57:10.361Z,48.40
2018-12-30T19:59:41.743Z,228.47
2018-12-30T20:02:13.135Z,103.40
2018-12-30T20:04:46.394Z,63.40
2018-12-30T20:07:17.828Z,58.43
2018-12-30T20:09:49.466Z,105.60
2018-12-30T20:12:20.835Z,201.70
2018-12-30T20:14:52.351Z,189.23
2018-12-30T20:17:23.827Z,249.80
2018-12-30T20:19:55.371Z,212.60
2018-12-30T20:22:26.843Z,163.33
2018-12-30T20:24:58.266Z,202.13
2018-12-30T20:27:29.778Z,229.47
2018-12-30T20:30:01.364Z,173.07
2018-12-30T20:32:32.902Z,193.43
2018-12-30T20:35:05.792Z,189.97
2018-12-30T20:37:38.744Z,169.30
2018-12-30T20:40:10.281Z,166.67
2018-12-30T20:42:41.789Z,163.17
2018-12-30T20:45:13.186Z,158.17
2018-12-30T20:47:44.582Z,125.33
2018-12-30T20:50:16.038Z,158.73
2018-12-30T20:52:47.465Z,149.20
2018-12-30T20:55:19.043Z,211.73
2018-12-30T20:57:50.689Z,200.63
2018-12-30T21:00:22.428Z,167.53
2018-12-30T21:02:53.989Z,217.23
2018-12-30T21:05:25.599Z,180.67
2018-12-30T21:07:57.230Z,153.23
2018-12-30T21:10:28.714Z,164.80
2018-12-30T21:13:00.315Z,138.23
2018-12-30T21:15:31.973Z,124.00
2018-12-30T21:18:03.505Z,108.03
2018-12-30T21:20:35.132Z,113.83
2018-12-30T21:23:06.602Z,109.83
2018-12-30T21:25:38.144Z,121.67
2018-12-30T21:28:09.559Z,102.63
2018-12-30T21:30:41.015Z,92.03
2018-12-30T21:33:12.539Z,71.47
2018-12-30T21:35:44.176Z,60.97
2018-12-30T21:38:15.642Z,67.30
2018-12-30T21:40:46.984Z,81.10
2018-12-30T21:43:18.365Z,72.87
2018-12-30T21:45:49.777Z,70.73
2018-12-30T21:48:22.366Z,75.50
2018-12-30T21:50:53.707Z,94.57
2018-12-30T21:53:25.217Z,95.40
2018-12-30T21:55:56.873Z,114.43
2018-12-30T21:58:28.480Z,107.07
2018-12-30T22:00:59.904Z,98.90
2018-12-30T22:03:31.431Z,76.97
2018-12-30T22:06:02.940Z,77.57
2018-12-30T22:08:40.674Z,96.97
2018-12-30T22:11:12.154Z,84.27
2018-12-30T22:13:45.851Z,108.97
2018-12-30T22:16:17.124Z,106.53
2018-12-30T22:18:48.379Z,89.90
2018-12-30T22:21:19.877Z,90.83
2018-12-30T22:23:52.001Z,69.53
2018-12-30T22:26:23.518Z,62.77
2018-12-30T22:28:57.212Z,69.53
2018-12-30T22:31:28.608Z,65.23
2018-12-30T22:34:00.061Z,60.07
2018-12-30T22:36:42.288Z,61.80
2018-12-30T22:39:13.801Z,74.97
2018-12-30T22:41:54.782Z,79.17
2018-12-30T22:44:26.205Z,94.47
2018-12-30T22:46:57.756Z,131.10
2018-12-30T22:49:29.230Z,97.07
2018-12-30T22:52:01.627Z,200.97
2018-12-30T22:54:33.087Z,147.20
2018-12-30T22:57:04.666Z,71.57
2018-12-30T22:59:36.214Z,66.30
2018-12-30T23:02:07.890Z,53.50
2018-12-30T23:04:39.609Z,59.30
2018-12-30T23:07:11.711Z,70.77
2018-12-30T23:09:43.097Z,61.50
2018-12-30T23:12:15.151Z,50.30
2018-12-30T23:14:46.503Z,67.93
2018-12-30T23:17:17.981Z,88.23
2018-12-30T23:19:49.436Z,74.10
2018-12-30T23:22:24.196Z,77.87
2018-12-30T23:24:57.171Z,65.07
2018-12-30T23:27:28.746Z,68.43
2018-12-30T23:30:00.123Z,81.47
2018-12-30T23:32:31.668Z,108.23
2018-12-30T23:35:03.103Z,88.90
2018-12-30T23:37:34.522Z,79.80
2018-12-30T23:40:05.991Z,96.77
2018-12-30T23:42:37.396Z,66.07
2018-12-30T23:45:08.771Z,56.90
2018-12-30T23:47:40.150Z,56.33
2018-12-30T23:50:11.561Z,35.70
2018-12-30T23:52:43.007Z,36.97
2018-12-30T23:55:14.411Z,30.30
2018-12-30T23:57:45.956Z,34.33
